sensor_id;sensor_type;location;lat;lon;timestamp;pressure;altitude;pressure_sealevel;temperature;humidity
58343;BME280;44150;42.602;23.398;2024-02-21T00:00:49;94302.78;;;37.46;78.30
58343;BME280;44150;42.602;23.398;2024-02-21T00:03:15;94298.47;;;37.45;77.74
58343;BME280;44150;42.602;23.398;2024-02-21T00:05:40;94293.88;;;37.46;77.87
58343;BME280;44150;42.602;23.398;2024-02-21T00:08:06;94292.00;;;37.46;77.58
58343;BME280;44150;42.602;23.398;2024-02-21T00:10:31;94285.59;;;37.42;77.66
58343;BME280;44150;42.602;23.398;2024-02-21T00:13:00;94289.59;;;37.45;77.44
58343;BME280;44150;42.602;23.398;2024-02-21T00:15:26;94284.69;;;37.47;77.72
58343;BME280;44150;42.602;23.398;2024-02-21T00:17:51;94285.78;;;37.46;77.86
58343;BME280;44150;42.602;23.398;2024-02-21T00:20:16;94278.09;;;37.39;77.58
58343;BME280;44150;42.602;23.398;2024-02-21T00:22:43;94283.41;;;37.44;77.36
58343;BME280;44150;42.602;23.398;2024-02-21T00:25:08;94287.56;;;37.50;77.13
58343;BME280;44150;42.602;23.398;2024-02-21T00:27:34;94287.09;;;37.48;77.27
58343;BME280;44150;42.602;23.398;2024-02-21T00:29:59;94273.00;;;37.38;77.57
58343;BME280;44150;42.602;23.398;2024-02-21T00:32:24;94282.78;;;37.47;76.97
58343;BME280;44150;42.602;23.398;2024-02-21T00:34:50;94285.78;;;37.46;77.50
58343;BME280;44150;42.602;23.398;2024-02-21T00:37:15;94285.19;;;37.49;77.12
58343;BME280;44150;42.602;23.398;2024-02-21T00:39:42;94283.59;;;37.48;77.58
58343;BME280;44150;42.602;23.398;2024-02-21T00:42:07;94283.59;;;37.48;77.58
58343;BME280;44150;42.602;23.398;2024-02-21T00:44:33;94281.19;;;37.46;76.97
58343;BME280;44150;42.602;23.398;2024-02-21T00:46:58;94268.09;;;37.40;77.02
58343;BME280;44150;42.602;23.398;2024-02-21T00:49:24;94276.41;;;37.43;76.80
58343;BME280;44150;42.602;23.398;2024-02-21T00:51:49;94282.78;;;37.47;76.80
58343;BME280;44150;42.602;23.398;2024-02-21T00:54:14;94278.00;;;37.58;76.48
58343;BME280;44150;42.602;23.398;2024-02-21T00:56:41;94272.00;;;37.47;76.55
58343;BME280;44150;42.602;23.398;2024-02-21T00:59:06;94282.78;;;37.47;77.17
58343;BME280;44150;42.602;23.398;2024-02-21T01:01:32;94274.97;;;37.46;77.18
58343;BME280;44150;42.602;23.398;2024-02-21T01:03:57;94274.78;;;37.42;77.08
58343;BME280;44150;42.602;23.398;2024-02-21T01:06:23;94262.38;;;37.41;77.01
58343;BME280;44150;42.602;23.398;2024-02-21T01:08:49;94270.72;;;37.45;77.45
58343;BME280;44150;42.602;23.398;2024-02-21T01:11:15;94262.28;;;37.46;77.21
58343;BME280;44150;42.602;23.398;2024-02-21T01:13:40;94266.28;;;37.49;77.17
58343;BME280;44150;42.602;23.398;2024-02-21T01:16:06;94256.22;;;37.41;76.59
58343;BME280;44150;42.602;23.398;2024-02-21T01:18:33;94255.50;;;37.49;76.77
58343;BME280;44150;42.602;23.398;2024-02-21T01:20:58;94255.59;;;37.44;76.67
58343;BME280;44150;42.602;23.398;2024-02-21T01:23:24;94260.69;;;37.45;76.69
58343;BME280;44150;42.602;23.398;2024-02-21T01:25:49;94249.59;;;37.47;76.66
58343;BME280;44150;42.602;23.398;2024-02-21T01:28:15;94253.59;;;37.49;76.36
58343;BME280;44150;42.602;23.398;2024-02-21T01:30:40;94256.81;;;37.51;76.82
58343;BME280;44150;42.602;23.398;2024-02-21T01:33:06;94242.28;;;37.47;76.64
58343;BME280;44150;42.602;23.398;2024-02-21T01:35:31;94252.28;;;37.47;75.94
58343;BME280;44150;42.602;23.398;2024-02-21T01:37:56;94250.69;;;37.46;76.06
58343;BME280;44150;42.602;23.398;2024-02-21T01:40:22;94232.00;;;37.36;76.36
58343;BME280;44150;42.602;23.398;2024-02-21T01:42:47;94244.47;;;37.45;76.31
58343;BME280;44150;42.602;23.398;2024-02-21T01:45:13;94243.38;;;37.46;76.69
58343;BME280;44150;42.602;23.398;2024-02-21T01:47:39;94239.78;;;37.51;76.54
58343;BME280;44150;42.602;23.398;2024-02-21T01:50:05;94239.88;;;37.46;76.71
58343;BME280;44150;42.602;23.398;2024-02-21T01:52:31;94239.28;;;37.49;76.88
58343;BME280;44150;42.602;23.398;2024-02-21T01:54:58;94235.47;;;37.50;76.50
58343;BME280;44150;42.602;23.398;2024-02-21T01:57:23;94240.38;;;37.48;76.34
58343;BME280;44150;42.602;23.398;2024-02-21T01:59:49;94231.28;;;37.44;76.62
58343;BME280;44150;42.602;23.398;2024-02-21T02:02:15;94223.00;;;37.40;76.27
58343;BME280;44150;42.602;23.398;2024-02-21T02:04:42;94238.16;;;37.50;75.73
58343;BME280;44150;42.602;23.398;2024-02-21T02:07:08;94230.69;;;37.47;76.34
58343;BME280;44150;42.602;23.398;2024-02-21T02:09:34;94244.97;;;37.47;76.08
58343;BME280;44150;42.602;23.398;2024-02-21T02:12:00;94228.09;;;37.42;76.00
58343;BME280;44150;42.602;23.398;2024-02-21T02:14:26;94234.47;;;37.46;76.31
58343;BME280;44150;42.602;23.398;2024-02-21T02:16:51;94237.19;;;37.46;76.29
58343;BME280;44150;42.602;23.398;2024-02-21T02:19:16;94233.66;;;37.45;76.49
58343;BME280;44150;42.602;23.398;2024-02-21T02:21:46;94236.09;;;37.47;76.53
58343;BME280;44150;42.602;23.398;2024-02-21T02:24:19;94237.50;;;37.44;76.55
58343;BME280;44150;42.602;23.398;2024-02-21T02:26:44;94238.78;;;37.47;76.58
58343;BME280;44150;42.602;23.398;2024-02-21T02:29:10;94236.59;;;37.49;75.93
58343;BME280;44150;42.602;23.398;2024-02-21T02:31:36;94232.56;;;37.46;75.81
58343;BME280;44150;42.602;23.398;2024-02-21T02:34:02;94225.28;;;37.47;76.09
58343;BME280;44150;42.602;23.398;2024-02-21T02:36:31;94231.47;;;37.47;75.93
58343;BME280;44150;42.602;23.398;2024-02-21T02:38:56;94226.88;;;37.48;76.27
58343;BME280;44150;42.602;23.398;2024-02-21T02:41:22;94211.59;;;37.43;75.96
58343;BME280;44150;42.602;23.398;2024-02-21T02:43:47;94224.47;;;37.46;76.39
58343;BME280;44150;42.602;23.398;2024-02-21T02:46:12;94224.81;;;37.45;76.88
58343;BME280;44150;42.602;23.398;2024-02-21T02:48:38;94221.47;;;37.48;75.93
58343;BME280;44150;42.602;23.398;2024-02-21T02:51:04;94216.00;;;37.53;76.42
58343;BME280;44150;42.602;23.398;2024-02-21T02:53:29;94216.00;;;37.53;76.51
58343;BME280;44150;42.602;23.398;2024-02-21T02:55:54;94212.88;;;37.46;76.15
58343;BME280;44150;42.602;23.398;2024-02-21T02:58:20;94211.78;;;37.47;76.53
58343;BME280;44150;42.602;23.398;2024-02-21T03:00:45;94231.28;;;37.57;76.10
58343;BME280;44150;42.602;23.398;2024-02-21T03:03:11;94221.19;;;37.49;76.13
58343;BME280;44150;42.602;23.398;2024-02-21T03:05:36;94222.75;;;37.50;76.68
58343;BME280;44150;42.602;23.398;2024-02-21T03:08:01;94226.25;;;37.51;76.67
58343;BME280;44150;42.602;23.398;2024-02-21T03:10:27;94230.88;;;37.50;76.77
58343;BME280;44150;42.602;23.398;2024-02-21T03:12:52;94233.09;;;37.62;76.35
58343;BME280;44150;42.602;23.398;2024-02-21T03:15:18;94231.28;;;37.44;76.53
58343;BME280;44150;42.602;23.398;2024-02-21T03:17:44;94225.78;;;37.49;76.50
58343;BME280;44150;42.602;23.398;2024-02-21T03:20:10;94233.31;;;37.52;77.02
58343;BME280;44150;42.602;23.398;2024-02-21T03:22:38;94236.09;;;37.47;77.22
58343;BME280;44150;42.602;23.398;2024-02-21T03:25:04;94244.19;;;37.47;76.84
58343;BME280;44150;42.602;23.398;2024-02-21T03:27:30;94247.88;;;37.51;76.82
58343;BME280;44150;42.602;23.398;2024-02-21T03:29:56;94246.41;;;37.45;77.11
58343;BME280;44150;42.602;23.398;2024-02-21T03:32:21;94243.19;;;37.43;76.42
58343;BME280;44150;42.602;23.398;2024-02-21T03:34:47;94253.88;;;37.48;76.59
58343;BME280;44150;42.602;23.398;2024-02-21T03:37:12;94249.59;;;37.47;77.06
58343;BME280;44150;42.602;23.398;2024-02-21T03:39:39;94254.38;;;37.63;76.40
58343;BME280;44150;42.602;23.398;2024-02-21T03:42:04;94246.09;;;37.46;76.70
58343;BME280;44150;42.602;23.398;2024-02-21T03:44:33;94258.78;;;37.46;76.88
58343;BME280;44150;42.602;23.398;2024-02-21T03:46:59;94252.56;;;37.45;76.92
58343;BME280;44150;42.602;23.398;2024-02-21T03:49:25;94244.72;;;37.35;76.86
58343;BME280;44150;42.602;23.398;2024-02-21T03:51:50;94242.78;;;37.49;76.55
58343;BME280;44150;42.602;23.398;2024-02-21T03:54:16;94232.91;;;37.31;76.82
58343;BME280;44150;42.602;23.398;2024-02-21T03:56:41;94257.19;;;37.45;77.06
58343;BME280;44150;42.602;23.398;2024-02-21T03:59:07;94262.00;;;37.48;77.00
58343;BME280;44150;42.602;23.398;2024-02-21T04:01:36;94261.00;;;37.44;76.91
58343;BME280;44150;42.602;23.398;2024-02-21T04:04:02;94259.69;;;37.41;77.05
58343;BME280;44150;42.602;23.398;2024-02-21T04:06:28;94258.78;;;37.46;76.82
58343;BME280;44150;42.602;23.398;2024-02-21T04:08:53;94250.59;;;37.37;76.99
58343;BME280;44150;42.602;23.398;2024-02-21T04:11:18;94257.69;;;37.47;77.25
58343;BME280;44150;42.602;23.398;2024-02-21T04:13:45;94257.97;;;37.45;77.01
58343;BME280;44150;42.602;23.398;2024-02-21T04:16:13;94254.97;;;37.47;77.16
58343;BME280;44150;42.602;23.398;2024-02-21T04:18:39;94255.59;;;37.44;77.35
58343;BME280;44150;42.602;23.398;2024-02-21T04:21:05;94251.81;;;37.45;76.39
58343;BME280;44150;42.602;23.398;2024-02-21T04:23:30;94256.88;;;37.46;76.55
58343;BME280;44150;42.602;23.398;2024-02-21T04:25:55;94253.09;;;37.47;76.75
58343;BME280;44150;42.602;23.398;2024-02-21T04:28:21;94254.97;;;37.47;77.03
58343;BME280;44150;42.602;23.398;2024-02-21T04:30:46;94245.88;;;37.43;77.03
58343;BME280;44150;42.602;23.398;2024-02-21T04:33:12;94252.78;;;37.49;76.94
58343;BME280;44150;42.602;23.398;2024-02-21T04:35:37;94224.22;;;37.34;77.24
58343;BME280;44150;42.602;23.398;2024-02-21T04:38:03;94256.69;;;37.43;76.95
58343;BME280;44150;42.602;23.398;2024-02-21T04:40:29;94213.50;;;37.29;76.87
58343;BME280;44150;42.602;23.398;2024-02-21T04:42:54;94246.19;;;37.41;77.39
58343;BME280;44150;42.602;23.398;2024-02-21T04:45:19;94244.28;;;37.42;76.85
58343;BME280;44150;42.602;23.398;2024-02-21T04:47:45;94251.28;;;37.43;76.99
58343;BME280;44150;42.602;23.398;2024-02-21T04:50:10;94249.09;;;37.45;77.09
58343;BME280;44150;42.602;23.398;2024-02-21T04:52:35;94244.91;;;37.39;77.17
58343;BME280;44150;42.602;23.398;2024-02-21T04:55:01;94256.41;;;37.44;76.85
58343;BME280;44150;42.602;23.398;2024-02-21T04:57:26;94256.41;;;37.58;76.65
58343;BME280;44150;42.602;23.398;2024-02-21T04:59:51;94259.28;;;37.48;76.90
58343;BME280;44150;42.602;23.398;2024-02-21T05:02:18;94259.59;;;37.46;76.84
58343;BME280;44150;42.602;23.398;2024-02-21T05:04:44;94242.19;;;37.39;77.56
58343;BME280;44150;42.602;23.398;2024-02-21T05:07:10;94253.88;;;37.48;77.65
58343;BME280;44150;42.602;23.398;2024-02-21T05:09:37;94258.47;;;37.47;77.71
58343;BME280;44150;42.602;23.398;2024-02-21T05:12:02;94246.63;;;37.35;77.91
58343;BME280;44150;42.602;23.398;2024-02-21T05:14:28;94260.91;;;37.49;77.76
58343;BME280;44150;42.602;23.398;2024-02-21T05:16:53;94246.19;;;37.41;77.54
58343;BME280;44150;42.602;23.398;2024-02-21T05:19:19;94266.28;;;37.49;77.82
58343;BME280;44150;42.602;23.398;2024-02-21T05:21:44;94255.19;;;37.37;77.42
58343;BME280;44150;42.602;23.398;2024-02-21T05:24:10;94272.78;;;37.48;77.11
58343;BME280;44150;42.602;23.398;2024-02-21T05:26:35;94250.13;;;37.35;77.39
58343;BME280;44150;42.602;23.398;2024-02-21T05:29:00;94273.88;;;37.47;77.54
58343;BME280;44150;42.602;23.398;2024-02-21T05:31:26;94258.41;;;37.39;77.26
58343;BME280;44150;42.602;23.398;2024-02-21T05:34:07;94272.28;;;37.46;77.08
58343;BME280;44150;42.602;23.398;2024-02-21T05:36:33;94272.78;;;37.48;77.43
58343;BME280;44150;42.602;23.398;2024-02-21T05:38:59;94268.47;;;37.47;77.46
58343;BME280;44150;42.602;23.398;2024-02-21T05:41:24;94271.00;;;37.43;77.20
58343;BME280;44150;42.602;23.398;2024-02-21T05:43:49;94272.00;;;37.47;77.77
58343;BME280;44150;42.602;23.398;2024-02-21T05:46:19;94274.19;;;37.45;77.39
58343;BME280;44150;42.602;23.398;2024-02-21T05:48:44;94271.47;;;37.45;77.88
58343;BME280;44150;42.602;23.398;2024-02-21T05:51:09;94277.19;;;37.44;77.97
58343;BME280;44150;42.602;23.398;2024-02-21T05:53:35;94281.69;;;37.48;77.72
58343;BME280;44150;42.602;23.398;2024-02-21T05:56:01;94282.50;;;37.49;77.26
58343;BME280;44150;42.602;23.398;2024-02-21T05:58:27;94290.38;;;37.45;78.01
58343;BME280;44150;42.602;23.398;2024-02-21T06:00:52;94292.78;;;37.47;77.35
58343;BME280;44150;42.602;23.398;2024-02-21T06:03:17;94290.59;;;37.49;77.93
58343;BME280;44150;42.602;23.398;2024-02-21T06:05:43;94290.09;;;37.47;77.43
58343;BME280;44150;42.602;23.398;2024-02-21T06:08:08;94295.00;;;37.45;77.48
58343;BME280;44150;42.602;23.398;2024-02-21T06:10:34;94264.22;;;37.32;78.11
58343;BME280;44150;42.602;23.398;2024-02-21T06:12:59;94294.69;;;37.46;77.75
58343;BME280;44150;42.602;23.398;2024-02-21T06:15:24;94295.31;;;37.43;77.39
58343;BME280;44150;42.602;23.398;2024-02-21T06:17:50;94303.69;;;37.42;77.90
58343;BME280;44150;42.602;23.398;2024-02-21T06:20:18;94295.41;;;37.38;77.48
58343;BME280;44150;42.602;23.398;2024-02-21T06:22:43;94309.28;;;37.45;77.98
58343;BME280;44150;42.602;23.398;2024-02-21T06:25:09;94308.63;;;37.40;78.25
58343;BME280;44150;42.602;23.398;2024-02-21T06:27:34;94313.78;;;37.50;77.31
58343;BME280;44150;42.602;23.398;2024-02-21T06:29:59;94312.78;;;37.46;77.92
58343;BME280;44150;42.602;23.398;2024-02-21T06:32:25;94315.50;;;37.46;77.45
58343;BME280;44150;42.602;23.398;2024-02-21T06:34:50;94320.91;;;35.23;33.23
58343;BME280;44150;42.602;23.398;2024-02-21T06:37:15;94324.84;;;38.03;48.16
58343;BME280;44150;42.602;23.398;2024-02-21T06:39:41;94315.94;;;37.53;60.87
58343;BME280;44150;42.602;23.398;2024-02-21T06:42:06;94319.31;;;37.45;66.63
58343;BME280;44150;42.602;23.398;2024-02-21T06:44:32;94309.00;;;37.33;70.28
58343;BME280;44150;42.602;23.398;2024-02-21T06:47:01;94328.19;;;37.45;71.87
58343;BME280;44150;42.602;23.398;2024-02-21T06:49:27;94326.91;;;37.43;73.14
58343;BME280;44150;42.602;23.398;2024-02-21T06:51:52;94328.81;;;37.42;73.91
58343;BME280;44150;42.602;23.398;2024-02-21T06:54:17;94313.91;;;37.31;74.65
58343;BME280;44150;42.602;23.398;2024-02-21T06:56:43;94334.72;;;37.44;74.85
58343;BME280;44150;42.602;23.398;2024-02-21T06:59:08;94329.13;;;37.41;75.09
58343;BME280;44150;42.602;23.398;2024-02-21T07:01:33;94336.63;;;37.44;75.55
58343;BME280;44150;42.602;23.398;2024-02-21T07:03:59;94333.09;;;37.43;75.74
58343;BME280;44150;42.602;23.398;2024-02-21T07:06:24;94332.00;;;37.44;75.38
58343;BME280;44150;42.602;23.398;2024-02-21T07:08:49;94334.53;;;37.41;75.89
58343;BME280;44150;42.602;23.398;2024-02-21T07:11:15;94331.81;;;37.41;75.72
58343;BME280;44150;42.602;23.398;2024-02-21T07:13:40;94328.59;;;37.39;76.09
58343;BME280;44150;42.602;23.398;2024-02-21T07:16:06;94330.41;;;37.43;76.05
58343;BME280;44150;42.602;23.398;2024-02-21T07:18:32;94335.00;;;37.43;76.06
58343;BME280;44150;42.602;23.398;2024-02-21T07:20:57;94336.09;;;37.42;76.57
58343;BME280;44150;42.602;23.398;2024-02-21T07:23:23;94338.00;;;37.41;76.35
58343;BME280;44150;42.602;23.398;2024-02-21T07:25:49;94331.22;;;37.44;76.25
58343;BME280;44150;42.602;23.398;2024-02-21T07:28:14;94343.41;;;37.41;76.13
58343;BME280;44150;42.602;23.398;2024-02-21T07:30:41;94345.00;;;37.42;76.64
58343;BME280;44150;42.602;23.398;2024-02-21T07:33:06;94341.50;;;37.42;76.44
58343;BME280;44150;42.602;23.398;2024-02-21T07:35:32;94333.22;;;37.38;76.34
58343;BME280;44150;42.602;23.398;2024-02-21T07:37:57;94343.63;;;37.45;76.76
58343;BME280;44150;42.602;23.398;2024-02-21T07:40:23;94338.50;;;37.43;76.64
58343;BME280;44150;42.602;23.398;2024-02-21T07:42:48;94335.81;;;37.43;76.25
58343;BME280;44150;42.602;23.398;2024-02-21T07:45:14;94318.00;;;37.28;76.74
58343;BME280;44150;42.602;23.398;2024-02-21T07:47:39;94343.41;;;37.41;76.37
58343;BME280;44150;42.602;23.398;2024-02-21T07:50:05;94341.22;;;37.43;76.83
58343;BME280;44150;42.602;23.398;2024-02-21T07:52:30;94331.50;;;37.42;77.10
58343;BME280;44150;42.602;23.398;2024-02-21T07:54:56;94332.81;;;37.45;76.51
58343;BME280;44150;42.602;23.398;2024-02-21T07:57:21;94336.91;;;37.42;76.92
58343;BME280;44150;42.602;23.398;2024-02-21T07:59:47;94343.09;;;37.43;76.58
58343;BME280;44150;42.602;23.398;2024-02-21T08:02:16;94331.59;;;37.37;76.62
58343;BME280;44150;42.602;23.398;2024-02-21T08:04:41;94330.41;;;37.43;76.69
58343;BME280;44150;42.602;23.398;2024-02-21T08:07:07;94332.00;;;37.44;76.61
58343;BME280;44150;42.602;23.398;2024-02-21T08:09:32;94327.72;;;37.43;76.72
58343;BME280;44150;42.602;23.398;2024-02-21T08:11:58;94326.72;;;37.39;77.05
58343;BME280;44150;42.602;23.398;2024-02-21T08:14:23;94327.72;;;37.43;77.10
58343;BME280;44150;42.602;23.398;2024-02-21T08:16:50;94321.59;;;37.38;76.85
58343;BME280;44150;42.602;23.398;2024-02-21T08:19:16;94327.63;;;37.35;77.24
58343;BME280;44150;42.602;23.398;2024-02-21T08:21:42;94331.22;;;37.44;76.75
58343;BME280;44150;42.602;23.398;2024-02-21T08:24:07;94325.28;;;37.42;77.32
58343;BME280;44150;42.602;23.398;2024-02-21T08:26:32;94326.09;;;37.42;77.26
58343;BME280;44150;42.602;23.398;2024-02-21T08:28:58;94326.91;;;37.43;77.64
58343;BME280;44150;42.602;23.398;2024-02-21T08:31:27;94318.81;;;37.43;76.91
58343;BME280;44150;42.602;23.398;2024-02-21T08:33:59;94318.09;;;37.37;77.35
58343;BME280;44150;42.602;23.398;2024-02-21T08:36:31;94318.31;;;37.41;77.35
58343;BME280;44150;42.602;23.398;2024-02-21T08:38:57;94326.63;;;37.44;77.35
58343;BME280;44150;42.602;23.398;2024-02-21T08:41:23;94328.31;;;37.40;77.12
58343;BME280;44150;42.602;23.398;2024-02-21T08:43:50;94328.81;;;37.42;77.06
58343;BME280;44150;42.602;23.398;2024-02-21T08:46:16;94320.22;;;37.40;77.83
58343;BME280;44150;42.602;23.398;2024-02-21T08:48:43;94326.09;;;37.42;77.49
58343;BME280;44150;42.602;23.398;2024-02-21T08:51:09;94320.41;;;37.44;77.40
58343;BME280;44150;42.602;23.398;2024-02-21T08:53:34;94326.41;;;37.41;77.63
58343;BME280;44150;42.602;23.398;2024-02-21T08:55:59;94323.41;;;37.42;77.75
58343;BME280;44150;42.602;23.398;2024-02-21T08:58:25;94318.19;;;37.46;77.63
58343;BME280;44150;42.602;23.398;2024-02-21T09:00:52;94313.41;;;37.43;77.75
58343;BME280;44150;42.602;23.398;2024-02-21T09:03:17;94312.31;;;37.44;77.72
58343;BME280;44150;42.602;23.398;2024-02-21T09:05:45;94322.59;;;37.42;77.48
58343;BME280;44150;42.602;23.398;2024-02-21T09:08:10;94330.41;;;37.43;77.74
58343;BME280;44150;42.602;23.398;2024-02-21T09:10:36;94322.31;;;37.43;77.51
58343;BME280;44150;42.602;23.398;2024-02-21T09:13:01;94326.09;;;37.42;77.92
58343;BME280;44150;42.602;23.398;2024-02-21T09:15:28;94324.19;;;37.43;77.68
58343;BME280;44150;42.602;23.398;2024-02-21T09:17:54;94324.19;;;37.43;77.30
58343;BME280;44150;42.602;23.398;2024-02-21T09:20:19;94318.59;;;37.39;77.87
58343;BME280;44150;42.602;23.398;2024-02-21T09:22:45;94321.03;;;37.41;77.68
58343;BME280;44150;42.602;23.398;2024-02-21T09:25:10;94315.63;;;37.41;78.16
58343;BME280;44150;42.602;23.398;2024-02-21T09:27:38;94319.69;;;37.38;77.41
58343;BME280;44150;42.602;23.398;2024-02-21T09:30:05;94321.03;;;37.41;77.96
58343;BME280;44150;42.602;23.398;2024-02-21T09:32:30;94315.63;;;37.41;77.72
58343;BME280;44150;42.602;23.398;2024-02-21T09:34:57;94326.41;;;37.41;77.57
58343;BME280;44150;42.602;23.398;2024-02-21T09:37:23;94321.03;;;37.41;77.64
58343;BME280;44150;42.602;23.398;2024-02-21T09:39:48;94318.00;;;37.42;77.90
58343;BME280;44150;42.602;23.398;2024-02-21T09:42:18;94315.31;;;37.42;77.67
58343;BME280;44150;42.602;23.398;2024-02-21T09:44:45;94313.03;;;37.36;77.38
58343;BME280;44150;42.602;23.398;2024-02-21T09:47:34;94320.41;;;37.44;77.44
58343;BME280;44150;42.602;23.398;2024-02-21T09:50:04;94317.19;;;37.42;77.46
58343;BME280;44150;42.602;23.398;2024-02-21T09:52:30;94322.59;;;37.42;77.94
58343;BME280;44150;42.602;23.398;2024-02-21T09:54:58;94322.31;;;37.43;77.46
58343;BME280;44150;42.602;23.398;2024-02-21T09:57:24;94320.69;;;37.42;78.15
58343;BME280;44150;42.602;23.398;2024-02-21T09:59:52;94320.09;;;35.46;36.61
58343;BME280;44150;42.602;23.398;2024-02-21T10:02:17;94309.38;;;35.17;31.90
58343;BME280;44150;42.602;23.398;2024-02-21T10:04:43;94325.09;;;38.15;48.18
58343;BME280;44150;42.602;23.398;2024-02-21T10:07:08;94320.78;;;37.51;59.68
58343;BME280;44150;42.602;23.398;2024-02-21T10:09:34;94310.81;;;37.38;65.60
58343;BME280;44150;42.602;23.398;2024-02-21T10:12:09;94314.00;;;37.40;68.58
58343;BME280;44150;42.602;23.398;2024-02-21T10:14:35;94309.41;;;37.40;70.48
58343;BME280;44150;42.602;23.398;2024-02-21T10:17:01;94303.31;;;37.35;71.98
58343;BME280;44150;42.602;23.398;2024-02-21T10:19:28;94306.72;;;37.40;73.18
58343;BME280;44150;42.602;23.398;2024-02-21T10:22:07;94312.41;;;37.39;73.62
58343;BME280;44150;42.602;23.398;2024-02-21T10:24:33;94304.31;;;37.39;73.64
58343;BME280;44150;42.602;23.398;2024-02-21T10:27:06;94301.00;;;37.42;74.04
58343;BME280;44150;42.602;23.398;2024-02-21T10:29:36;94305.31;;;37.43;74.48
58343;BME280;44150;42.602;23.398;2024-02-21T10:32:12;94277.91;;;37.36;75.20
58343;BME280;44150;42.602;23.398;2024-02-21T10:34:40;94284.31;;;37.40;75.08
58343;BME280;44150;42.602;23.398;2024-02-21T10:37:07;94279.72;;;37.40;75.21
58343;BME280;44150;42.602;23.398;2024-02-21T10:39:40;94277.00;;;37.40;75.27
58343;BME280;44150;42.602;23.398;2024-02-21T10:42:06;94278.09;;;37.39;75.41
58343;BME280;44150;42.602;23.398;2024-02-21T10:44:32;94274.00;;;37.42;76.26
58343;BME280;44150;42.602;23.398;2024-02-21T10:46:58;94275.69;;;37.38;75.84
58343;BME280;44150;42.602;23.398;2024-02-21T10:49:25;94267.59;;;37.38;76.37
58343;BME280;44150;42.602;23.398;2024-02-21T10:51:57;94256.22;;;37.41;75.89
58343;BME280;44150;42.602;23.398;2024-02-21T10:57:03;94255.41;;;37.40;76.38
58343;BME280;44150;42.602;23.398;2024-02-21T10:59:30;94252.38;;;37.42;76.48
58343;BME280;44150;42.602;23.398;2024-02-21T11:01:57;94245.72;;;37.39;76.22
58343;BME280;44150;42.602;23.398;2024-02-21T11:04:23;94236.19;;;37.42;76.68
58343;BME280;44150;42.602;23.398;2024-02-21T11:06:49;94238.09;;;37.41;76.71
58343;BME280;44150;42.602;23.398;2024-02-21T11:09:16;94237.31;;;37.41;77.13
58343;BME280;44150;42.602;23.398;2024-02-21T11:11:43;94238.69;;;37.38;77.36
58343;BME280;44150;42.602;23.398;2024-02-21T11:14:11;94234.28;;;37.42;76.81
58343;BME280;44150;42.602;23.398;2024-02-21T11:16:42;94230.31;;;37.40;77.02
58343;BME280;44150;42.602;23.398;2024-02-21T11:19:08;94233.47;;;37.42;77.03
58343;BME280;44150;42.602;23.398;2024-02-21T11:21:37;94237.31;;;37.41;76.92
58343;BME280;44150;42.602;23.398;2024-02-21T11:24:03;94230.50;;;37.43;77.65
58343;BME280;44150;42.602;23.398;2024-02-21T11:26:30;94216.09;;;37.34;77.69
58343;BME280;44150;42.602;23.398;2024-02-21T11:29:02;94211.31;;;37.31;77.46
58343;BME280;44150;42.602;23.398;2024-02-21T11:31:42;94222.19;;;37.40;77.52
58343;BME280;44150;42.602;23.398;2024-02-21T11:34:11;94211.22;;;37.36;77.92
58343;BME280;44150;42.602;23.398;2024-02-21T11:36:48;94207.59;;;37.41;77.76
58343;BME280;44150;42.602;23.398;2024-02-21T11:39:25;94203.13;;;37.36;77.65
58343;BME280;44150;42.602;23.398;2024-02-21T11:42:06;94206.81;;;37.40;78.24
58343;BME280;44150;42.602;23.398;2024-02-21T11:44:36;94192.31;;;37.36;77.37
58343;BME280;44150;42.602;23.398;2024-02-21T11:47:06;94199.97;;;37.43;77.68
58343;BME280;44150;42.602;23.398;2024-02-21T11:49:43;94199.81;;;37.39;77.89
58343;BME280;44150;42.602;23.398;2024-02-21T11:52:09;94196.00;;;37.40;77.08
58343;BME280;44150;42.602;23.398;2024-02-21T11:54:34;94183.22;;;37.32;76.98
58343;BME280;44150;42.602;23.398;2024-02-21T11:57:00;94192.50;;;37.40;77.03
58343;BME280;44150;42.602;23.398;2024-02-21T11:59:26;94189.81;;;37.40;77.43
58343;BME280;44150;42.602;23.398;2024-02-21T12:01:53;94183.78;;;37.43;77.08
58343;BME280;44150;42.602;23.398;2024-02-21T12:04:20;94171.00;;;37.35;77.60
58343;BME280;44150;42.602;23.398;2024-02-21T12:06:46;94183.91;;;37.38;77.99
58343;BME280;44150;42.602;23.398;2024-02-21T12:09:17;94173.72;;;37.35;77.87
58343;BME280;44150;42.602;23.398;2024-02-21T12:11:44;94180.09;;;37.39;77.51
58343;BME280;44150;42.602;23.398;2024-02-21T12:14:10;94167.03;;;37.32;78.05
58343;BME280;44150;42.602;23.398;2024-02-21T12:16:35;94173.28;;;37.41;78.21
58343;BME280;44150;42.602;23.398;2024-02-21T12:19:04;94172.81;;;37.39;78.01
58343;BME280;44150;42.602;23.398;2024-02-21T12:21:30;94174.69;;;37.39;77.90
58343;BME280;44150;42.602;23.398;2024-02-21T12:24:00;94169.13;;;37.35;77.98
58343;BME280;44150;42.602;23.398;2024-02-21T12:26:36;94170.09;;;37.39;78.45
58343;BME280;44150;42.602;23.398;2024-02-21T12:29:01;94135.94;;;37.21;77.89
58343;BME280;44150;42.602;23.398;2024-02-21T12:31:27;94166.31;;;37.40;78.31
58343;BME280;44150;42.602;23.398;2024-02-21T12:33:53;94138.66;;;37.21;77.84
58343;BME280;44150;42.602;23.398;2024-02-21T12:36:18;94146.63;;;37.26;78.26
58343;BME280;44150;42.602;23.398;2024-02-21T12:38:44;94163.59;;;37.40;77.79
58343;BME280;44150;42.602;23.398;2024-02-21T12:41:09;94162.81;;;37.40;78.66
58343;BME280;44150;42.602;23.398;2024-02-21T12:43:35;94154.69;;;37.40;78.05
58343;BME280;44150;42.602;23.398;2024-02-21T12:46:00;94158.69;;;37.42;78.05
58343;BME280;44150;42.602;23.398;2024-02-21T12:48:26;94161.38;;;37.42;77.83